Hlavní strana
METAR-TAF:

METAR-TAF

Letiště :

Che-fej, Čína

zeměpisná šířka: 31-52N, zeměpisná délka: 117-14E, výška: 36 m

Aktuální stav počasí

Zpráva byla vytvořena před 1 hodinou a 7 minutami, v 11:00 UTC
Jihojihovýchodní vítr 10 kt
Teplota 30°C
Vlhkost vzduchu 62%
Tlak 1001 hPa
Viditelnost 10 km a více
Žádná oblačnost pod 1500 m, nevyskytují se cumulonimby.

METAR: ZSOF 041100Z 16005MPS CAVOK 30/22 Q1001 NOSIG

Čas: 20:07 (12:07 UTC)

Předpověď počasí

Zpráva byla vytvořena před 3 hodinami a 6 minutami, v 09:01 UTC
Předpověď platná od 04 v 12 UTC do 05 v 12 UTC
Jihojihovýchodní vítr 6 kt
Viditelnost: 6000 m
Dočasný
od 05 v 02 UTC do 05 v 08 UTC
Skoro jasno ve výšce 3000 ft, Cumulonimbus.
bouřka, déšť

TAF: ZSOF 040901Z 0412/0512 15003MPS 6000 NSC TX29/0412Z TN22/0422Z TEMPO 0502/0508 TSRA FEW030CB

Stav a předpovědi počasí z více než 4 000 letišť (zprávy METAR a TAF).

Červené a žluté tečky na mapě představují dostupné meteorologické stanice.

Když kurzor umístíte na tečku, zobrazí se název stanice.

Pak kliknutím zobrazíte stav a předpověď počasí.

Chcete-li změnit mapu, kliknutím na zelené tlačítko se znaménkem +mapu přiblížíte, kliknutím na zelené tlačítko se znaménkem – mapu oddálíte a kliknutím na zelené šipky přejdete na sousední mapy.


METAR-TAF: